createdAt,value
2022-09-17T00:00:20.238Z,0.00
2022-09-17T00:01:20.858Z,0.00
2022-09-17T00:02:21.425Z,0.00
2022-09-17T00:03:22.039Z,0.00
2022-09-17T00:04:22.659Z,0.00
2022-09-17T00:05:23.343Z,0.00
2022-09-17T00:06:24.017Z,0.00
2022-09-17T00:07:24.586Z,0.00
2022-09-17T00:08:25.141Z,0.00
2022-09-17T00:09:25.695Z,0.00
2022-09-17T00:10:26.376Z,0.00
2022-09-17T00:11:26.937Z,0.00
2022-09-17T00:12:27.505Z,0.00
2022-09-17T00:13:28.067Z,0.00
2022-09-17T00:14:28.631Z,0.00
2022-09-17T00:15:29.338Z,0.00
2022-09-17T00:16:29.945Z,0.00
2022-09-17T00:17:30.544Z,0.00
2022-09-17T00:18:31.100Z,0.00
2022-09-17T00:19:31.663Z,0.00
2022-09-17T00:20:32.373Z,0.00
2022-09-17T00:21:33.058Z,0.00
2022-09-17T00:22:33.615Z,0.00
2022-09-17T00:23:34.174Z,0.00
2022-09-17T00:24:34.739Z,0.00
2022-09-17T00:25:35.333Z,0.00
2022-09-17T00:26:35.894Z,0.00
2022-09-17T00:27:36.447Z,0.00
2022-09-17T00:28:37.013Z,0.00
2022-09-17T00:29:37.572Z,0.00
2022-09-17T00:30:38.163Z,0.00
2022-09-17T00:31:38.773Z,0.00
2022-09-17T00:32:39.381Z,0.00
2022-09-17T00:33:39.937Z,0.00
2022-09-17T00:34:40.500Z,0.00
2022-09-17T00:35:41.175Z,0.00
2022-09-17T00:36:41.868Z,0.00
2022-09-17T00:37:42.421Z,0.00
2022-09-17T00:38:42.994Z,0.00
2022-09-17T00:39:43.551Z,0.00
2022-09-17T00:40:44.165Z,0.00
2022-09-17T00:41:44.730Z,0.00
2022-09-17T00:42:45.297Z,0.00
2022-09-17T00:43:45.855Z,0.00
2022-09-17T00:44:46.411Z,0.00
2022-09-17T00:45:47.155Z,0.00
2022-09-17T00:46:47.820Z,0.00
2022-09-17T00:47:48.414Z,0.00
2022-09-17T00:48:48.977Z,0.00
2022-09-17T00:49:49.532Z,0.00
2022-09-17T00:50:50.131Z,0.00
2022-09-17T00:51:50.811Z,0.00
2022-09-17T00:52:51.382Z,0.00
2022-09-17T00:53:51.938Z,0.00
2022-09-17T00:54:52.501Z,0.00
2022-09-17T00:55:53.096Z,0.00
2022-09-17T00:56:53.655Z,0.00
2022-09-17T00:57:54.277Z,0.00
2022-09-17T00:58:54.844Z,0.00
2022-09-17T00:59:55.397Z,0.00
2022-09-17T01:00:56.104Z,0.00
2022-09-17T01:01:56.777Z,0.00
2022-09-17T01:02:57.350Z,0.00
2022-09-17T01:03:57.917Z,0.00
2022-09-17T01:04:58.476Z,0.00
2022-09-17T01:05:59.069Z,0.00
2022-09-17T01:06:59.751Z,0.00
2022-09-17T01:08:00.309Z,0.00
2022-09-17T01:09:00.867Z,0.00
2022-09-17T01:10:01.424Z,0.00
2022-09-17T01:11:02.112Z,0.00
2022-09-17T01:12:02.675Z,0.00
2022-09-17T01:13:03.238Z,0.00
2022-09-17T01:14:03.795Z,0.00
2022-09-17T01:15:04.355Z,0.00
2022-09-17T01:16:05.145Z,0.00
2022-09-17T01:17:05.724Z,0.00
2022-09-17T01:18:06.291Z,0.00
2022-09-17T01:19:06.852Z,0.00
2022-09-17T01:20:07.415Z,0.00
2022-09-17T01:21:08.152Z,0.00
2022-09-17T01:22:08.890Z,0.00
2022-09-17T01:23:09.453Z,0.00
2022-09-17T01:24:10.008Z,0.00
2022-09-17T01:25:10.566Z,0.00
2022-09-17T01:26:11.241Z,0.00
2022-09-17T01:27:11.800Z,0.00
2022-09-17T01:28:12.361Z,0.00
2022-09-17T01:29:12.923Z,0.00
2022-09-17T01:30:13.480Z,0.00
2022-09-17T01:31:14.194Z,0.00
2022-09-17T01:32:14.785Z,0.00
2022-09-17T01:33:15.342Z,0.00
2022-09-17T01:34:15.907Z,0.00
2022-09-17T01:35:16.474Z,0.00
2022-09-17T01:36:17.118Z,0.00
2022-09-17T01:37:17.804Z,0.00
2022-09-17T01:38:18.365Z,0.00
2022-09-17T01:39:18.932Z,0.00
2022-09-17T01:40:19.523Z,0.00
2022-09-17T01:41:20.186Z,0.00
2022-09-17T01:42:20.747Z,0.00
2022-09-17T01:43:21.313Z,0.00
2022-09-17T01:44:21.868Z,0.00
2022-09-17T01:45:22.438Z,0.00
2022-09-17T01:46:23.104Z,0.00
2022-09-17T01:47:23.677Z,0.00
2022-09-17T01:48:24.248Z,0.00
2022-09-17T01:49:24.810Z,0.00
2022-09-17T01:50:25.376Z,0.00
2022-09-17T01:51:26.036Z,0.00
2022-09-17T01:52:26.714Z,0.00
2022-09-17T01:53:27.284Z,0.00
2022-09-17T01:54:27.845Z,0.00
2022-09-17T01:55:28.406Z,0.00
2022-09-17T01:56:29.002Z,0.00
2022-09-17T01:57:29.559Z,0.00
2022-09-17T01:58:30.116Z,0.00
2022-09-17T01:59:30.682Z,0.00
2022-09-17T02:00:31.318Z,0.00
2022-09-17T02:01:31.937Z,0.00
2022-09-17T02:02:32.489Z,0.00
2022-09-17T02:03:33.050Z,0.00
2022-09-17T02:04:33.609Z,0.00
2022-09-17T02:05:34.170Z,0.00
2022-09-17T02:06:34.762Z,0.00
2022-09-17T02:07:35.448Z,0.00
2022-09-17T02:08:36.002Z,0.00
2022-09-17T02:09:36.558Z,0.00
2022-09-17T02:10:37.125Z,0.00
2022-09-17T02:11:37.847Z,0.00
2022-09-17T02:12:38.403Z,0.00
2022-09-17T02:13:39.125Z,0.00
2022-09-17T02:14:39.683Z,0.00
2022-09-17T02:15:40.241Z,0.00
2022-09-17T02:16:40.905Z,0.00
2022-09-17T02:17:41.468Z,0.00
2022-09-17T02:18:42.027Z,0.00
2022-09-17T02:19:42.587Z,0.00
2022-09-17T02:20:43.156Z,0.00
2022-09-17T02:21:43.902Z,0.00
2022-09-17T02:22:44.594Z,0.00
2022-09-17T02:23:45.155Z,0.00
2022-09-17T02:24:45.725Z,0.00
2022-09-17T02:25:46.278Z,0.00
2022-09-17T02:26:46.943Z,0.00
2022-09-17T02:27:47.518Z,0.00
2022-09-17T02:28:48.089Z,0.00
2022-09-17T02:29:48.652Z,0.00
2022-09-17T02:30:49.208Z,0.00
2022-09-17T02:31:49.838Z,0.00
2022-09-17T02:32:50.440Z,0.00
2022-09-17T02:33:51.011Z,0.00
2022-09-17T02:34:51.578Z,0.00
2022-09-17T02:35:52.141Z,0.00
2022-09-17T02:36:52.736Z,0.00
2022-09-17T02:37:53.423Z,0.00
2022-09-17T02:38:54.016Z,0.00
2022-09-17T02:39:54.627Z,0.00
2022-09-17T02:40:55.267Z,0.00
2022-09-17T02:41:55.915Z,0.00
2022-09-17T02:42:56.477Z,0.00
2022-09-17T02:43:57.128Z,0.00
2022-09-17T02:44:57.835Z,0.00
2022-09-17T02:45:58.465Z,0.00
2022-09-17T02:46:59.248Z,0.00
2022-09-17T02:47:59.833Z,0.00
2022-09-17T02:49:00.396Z,0.00
2022-09-17T02:50:00.961Z,0.00
2022-09-17T02:51:01.519Z,0.00
2022-09-17T02:52:02.123Z,0.00
2022-09-17T02:53:02.800Z,0.00
2022-09-17T02:54:03.358Z,0.00
2022-09-17T02:55:03.916Z,0.00
2022-09-17T02:56:04.507Z,0.00
2022-09-17T02:57:05.182Z,0.00
2022-09-17T02:58:05.738Z,0.00
2022-09-17T02:59:06.301Z,0.00
2022-09-17T03:00:06.857Z,0.00
2022-09-17T03:01:07.503Z,0.00
2022-09-17T03:02:08.198Z,0.00
2022-09-17T03:03:08.809Z,0.00
2022-09-17T03:04:09.369Z,0.00
2022-09-17T03:05:09.921Z,0.00
2022-09-17T03:06:10.478Z,0.00
2022-09-17T03:07:11.069Z,0.00
2022-09-17T03:08:11.747Z,0.00
2022-09-17T03:09:12.305Z,0.00
2022-09-17T03:10:12.868Z,0.00
2022-09-17T03:11:13.429Z,0.00
2022-09-17T03:12:14.083Z,0.00
2022-09-17T03:13:14.642Z,0.00
2022-09-17T03:14:15.199Z,0.00
2022-09-17T03:15:15.772Z,0.00
2022-09-17T03:16:16.365Z,0.00
2022-09-17T03:17:17.082Z,0.00
2022-09-17T03:18:17.641Z,0.00
2022-09-17T03:19:18.198Z,0.00
2022-09-17T03:20:18.761Z,0.00
2022-09-17T03:21:19.317Z,0.00
2022-09-17T03:22:20.051Z,0.00
2022-09-17T03:23:20.728Z,0.00
2022-09-17T03:24:21.288Z,0.00
2022-09-17T03:25:21.846Z,0.00
2022-09-17T03:26:22.405Z,0.00
2022-09-17T03:27:23.003Z,0.00
2022-09-17T03:28:23.559Z,0.00
2022-09-17T03:29:24.122Z,0.00
2022-09-17T03:30:24.679Z,0.00
2022-09-17T03:31:25.288Z,0.00
2022-09-17T03:32:25.888Z,0.00
2022-09-17T03:33:26.445Z,0.00
2022-09-17T03:34:27.001Z,0.00
2022-09-17T03:35:27.570Z,0.00
2022-09-17T03:36:28.129Z,0.00
2022-09-17T03:37:32.770Z,0.00
2022-09-17T03:38:29.779Z,0.00
2022-09-17T03:39:30.350Z,0.00
2022-09-17T03:40:30.979Z,0.00
2022-09-17T03:41:31.598Z,0.00
2022-09-17T03:42:32.236Z,0.00
2022-09-17T03:43:32.750Z,0.00
2022-09-17T03:44:33.311Z,0.00
2022-09-17T03:45:33.874Z,0.00
2022-09-17T03:46:34.474Z,0.00
2022-09-17T03:47:35.110Z,0.00
2022-09-17T03:48:35.673Z,0.00
2022-09-17T03:49:36.193Z,0.00
2022-09-17T03:50:36.696Z,0.00
2022-09-17T03:51:37.200Z,0.00
2022-09-17T03:52:37.813Z,0.00
2022-09-17T03:53:38.448Z,0.00
2022-09-17T03:54:38.951Z,0.00
2022-09-17T03:55:39.462Z,0.00
2022-09-17T03:56:39.976Z,0.00
2022-09-17T03:57:40.522Z,0.00
2022-09-17T03:58:41.035Z,0.00
2022-09-17T03:59:41.538Z,0.00
2022-09-17T04:00:42.040Z,0.00
2022-09-17T04:01:42.648Z,0.00
2022-09-17T04:02:43.345Z,0.00
2022-09-17T04:03:43.903Z,0.00
2022-09-17T04:04:44.413Z,0.00
2022-09-17T04:05:44.923Z,0.00
2022-09-17T04:06:45.433Z,5.62
2022-09-17T04:07:45.974Z,5.62
2022-09-17T04:08:46.607Z,5.62
2022-09-17T04:09:47.112Z,5.62
2022-09-17T04:10:47.621Z,5.62
2022-09-17T04:11:48.126Z,5.62
2022-09-17T04:12:48.752Z,5.62
2022-09-17T04:13:49.337Z,11.25
2022-09-17T04:14:49.934Z,11.25
2022-09-17T04:15:50.524Z,11.25
2022-09-17T04:16:51.056Z,11.25
2022-09-17T04:17:51.618Z,11.25
2022-09-17T04:18:52.119Z,16.88
2022-09-17T04:19:52.633Z,16.88
2022-09-17T04:20:53.134Z,16.88
2022-09-17T04:21:53.648Z,16.88
2022-09-17T04:22:54.321Z,16.88
2022-09-17T04:23:54.951Z,22.50
2022-09-17T04:24:55.456Z,22.50
2022-09-17T04:25:55.962Z,22.50
2022-09-17T04:26:56.473Z,22.50
2022-09-17T04:27:57.022Z,28.12
2022-09-17T04:28:57.530Z,28.12
2022-09-17T04:29:58.028Z,28.12
2022-09-17T04:30:58.611Z,28.12
2022-09-17T04:31:59.178Z,28.12
2022-09-17T04:32:59.726Z,33.75
2022-09-17T04:34:00.330Z,33.75
2022-09-17T04:35:00.908Z,33.75
2022-09-17T04:36:01.413Z,33.75
2022-09-17T04:37:01.946Z,39.38
2022-09-17T04:38:02.491Z,39.38
2022-09-17T04:39:03.123Z,39.38
2022-09-17T04:40:07.505Z,39.38
2022-09-17T04:41:04.502Z,39.38
2022-09-17T04:42:05.005Z,45.00
2022-09-17T04:43:05.557Z,45.00
2022-09-17T04:44:06.072Z,45.00
2022-09-17T04:45:06.575Z,50.62
2022-09-17T04:46:07.140Z,50.62
2022-09-17T04:47:07.678Z,50.62
2022-09-17T04:48:08.330Z,56.25
2022-09-17T04:49:08.889Z,56.25
2022-09-17T04:50:09.410Z,61.88
2022-09-17T04:51:09.920Z,61.88
2022-09-17T04:52:10.425Z,61.88
2022-09-17T04:53:10.964Z,67.50
2022-09-17T04:54:11.604Z,73.12
2022-09-17T04:55:12.119Z,73.12
2022-09-17T04:56:12.618Z,78.75
2022-09-17T04:57:13.126Z,78.75
2022-09-17T04:58:13.674Z,84.38
2022-09-17T04:59:14.175Z,84.38
2022-09-17T05:00:14.681Z,90.00
2022-09-17T05:01:15.311Z,90.00
2022-09-17T05:02:15.979Z,90.00
2022-09-17T05:03:16.556Z,90.00
2022-09-17T05:04:17.066Z,90.00
2022-09-17T05:05:17.584Z,90.00
2022-09-17T05:06:18.089Z,95.62
2022-09-17T05:07:18.933Z,95.62
2022-09-17T05:08:19.485Z,95.62
2022-09-17T05:09:20.112Z,95.62
2022-09-17T05:10:20.626Z,95.62
2022-09-17T05:11:21.143Z,95.62
2022-09-17T05:12:21.651Z,95.62
2022-09-17T05:13:22.291Z,95.62
2022-09-17T05:14:22.803Z,95.62
2022-09-17T05:15:23.350Z,95.62
2022-09-17T05:16:23.926Z,95.62
2022-09-17T05:17:24.454Z,101.25
2022-09-17T05:18:25.038Z,95.62
2022-09-17T05:19:25.548Z,95.62
2022-09-17T05:20:26.055Z,95.62
2022-09-17T05:21:26.562Z,95.62
2022-09-17T05:22:27.066Z,95.62
2022-09-17T05:23:27.738Z,95.62
2022-09-17T05:24:28.379Z,90.00
2022-09-17T05:25:28.891Z,90.00
2022-09-17T05:26:29.395Z,90.00
2022-09-17T05:27:29.931Z,90.00
2022-09-17T05:28:30.483Z,90.00
2022-09-17T05:29:30.990Z,90.00
2022-09-17T05:30:31.507Z,90.00
2022-09-17T05:31:32.067Z,95.62
2022-09-17T05:32:32.622Z,95.62
2022-09-17T05:33:33.207Z,95.62
2022-09-17T05:34:33.721Z,95.62
2022-09-17T05:35:34.257Z,95.62
2022-09-17T05:36:34.767Z,95.62
2022-09-17T05:37:36.050Z,95.62
2022-09-17T05:38:36.128Z,95.62
2022-09-17T05:39:36.758Z,95.62
2022-09-17T05:40:37.347Z,101.25
2022-09-17T05:41:37.897Z,101.25
2022-09-17T05:42:38.408Z,101.25
2022-09-17T05:43:38.943Z,101.25
2022-09-17T05:44:39.453Z,101.25
2022-09-17T05:45:39.961Z,101.25
2022-09-17T05:46:40.523Z,106.88
2022-09-17T05:47:41.064Z,106.88
2022-09-17T05:48:41.650Z,106.88
2022-09-17T05:49:42.161Z,106.88
2022-09-17T05:50:42.665Z,106.88
2022-09-17T05:51:43.183Z,106.88
2022-09-17T05:52:43.689Z,112.50
2022-09-17T05:53:44.294Z,112.50
2022-09-17T05:54:44.933Z,112.50
2022-09-17T05:55:45.439Z,112.50
2022-09-17T05:56:45.947Z,118.12
2022-09-17T05:57:46.451Z,118.12
2022-09-17T05:58:47.070Z,118.12
2022-09-17T05:59:47.582Z,118.12
2022-09-17T06:00:48.088Z,118.12
2022-09-17T06:01:48.680Z,118.12
2022-09-17T06:02:49.328Z,123.75
2022-09-17T06:03:49.948Z,123.75
2022-09-17T06:04:50.447Z,123.75
2022-09-17T06:05:50.959Z,123.75
2022-09-17T06:06:51.467Z,123.75
2022-09-17T06:07:51.984Z,129.38
2022-09-17T06:08:52.781Z,129.38
2022-09-17T06:09:53.432Z,129.38
2022-09-17T06:10:53.949Z,135.00
2022-09-17T06:11:54.457Z,135.00
2022-09-17T06:12:54.961Z,135.00
2022-09-17T06:13:55.523Z,129.38
2022-09-17T06:14:56.045Z,135.00
2022-09-17T06:15:56.637Z,135.00
2022-09-17T06:16:57.201Z,135.00
2022-09-17T06:17:57.776Z,140.62
2022-09-17T06:18:58.475Z,140.62
2022-09-17T06:19:58.982Z,140.62
2022-09-17T06:20:59.491Z,146.25
2022-09-17T06:21:59.997Z,146.25
2022-09-17T06:23:00.512Z,146.25
2022-09-17T06:24:01.113Z,151.88
2022-09-17T06:25:01.746Z,151.88
2022-09-17T06:26:02.251Z,151.88
2022-09-17T06:27:02.770Z,157.50
2022-09-17T06:28:03.284Z,157.50
2022-09-17T06:29:03.886Z,157.50
2022-09-17T06:30:04.390Z,163.12
2022-09-17T06:31:05.004Z,163.12
2022-09-17T06:32:05.532Z,163.12
2022-09-17T06:33:06.040Z,168.75
2022-09-17T06:34:06.581Z,168.75
2022-09-17T06:35:07.084Z,168.75
2022-09-17T06:36:13.157Z,174.38
2022-09-17T06:37:08.449Z,174.38
2022-09-17T06:38:08.953Z,174.38
2022-09-17T06:39:09.526Z,180.00
2022-09-17T06:40:10.264Z,180.00
2022-09-17T06:41:10.805Z,180.00
2022-09-17T06:42:11.318Z,185.62
2022-09-17T06:43:11.839Z,185.62
2022-09-17T06:44:12.388Z,185.62
2022-09-17T06:45:16.584Z,191.25
2022-09-17T06:46:13.541Z,191.25
2022-09-17T06:47:14.117Z,196.88
2022-09-17T06:48:14.621Z,196.88
2022-09-17T06:49:15.239Z,196.88
2022-09-17T06:50:15.742Z,202.50
2022-09-17T06:51:16.246Z,202.50
2022-09-17T06:52:16.771Z,202.50
2022-09-17T06:53:17.291Z,208.12
2022-09-17T06:54:17.844Z,202.50
2022-09-17T06:55:18.474Z,202.50
2022-09-17T06:56:18.978Z,208.12
2022-09-17T06:57:19.507Z,208.12
2022-09-17T06:58:20.015Z,208.12
2022-09-17T06:59:20.554Z,213.75
2022-09-17T07:00:21.061Z,213.75
2022-09-17T07:01:21.655Z,213.75
2022-09-17T07:02:22.278Z,219.38
2022-09-17T07:03:23.422Z,219.38
2022-09-17T07:04:23.610Z,219.38
2022-09-17T07:05:24.118Z,225.00
2022-09-17T07:06:24.631Z,225.00
2022-09-17T07:07:25.136Z,225.00
2022-09-17T07:08:25.642Z,230.62
2022-09-17T07:09:26.271Z,230.62
2022-09-17T07:10:26.907Z,230.62
2022-09-17T07:11:27.436Z,236.25
2022-09-17T07:12:27.960Z,236.25
2022-09-17T07:13:28.484Z,236.25
2022-09-17T07:14:29.021Z,236.25
2022-09-17T07:15:29.532Z,241.88
2022-09-17T07:16:30.205Z,241.88
2022-09-17T07:17:30.757Z,241.88
2022-09-17T07:18:31.266Z,247.50
2022-09-17T07:19:32.067Z,247.50
2022-09-17T07:20:32.581Z,247.50
2022-09-17T07:21:33.091Z,253.12
2022-09-17T07:22:33.600Z,253.12
2022-09-17T07:23:34.119Z,253.12
2022-09-17T07:24:34.819Z,258.75
2022-09-17T07:25:35.457Z,258.75
2022-09-17T07:26:35.962Z,258.75
2022-09-17T07:27:36.479Z,258.75
2022-09-17T07:28:36.991Z,258.75
2022-09-17T07:29:37.536Z,264.38
2022-09-17T07:30:38.043Z,264.38
2022-09-17T07:31:38.630Z,264.38
2022-09-17T07:32:39.194Z,264.38
2022-09-17T07:33:39.709Z,270.00
2022-09-17T07:34:40.251Z,270.00
2022-09-17T07:35:40.757Z,270.00
2022-09-17T07:36:41.261Z,275.62
2022-09-17T07:37:41.768Z,275.62
2022-09-17T07:38:42.305Z,275.62
2022-09-17T07:39:43.246Z,275.62
2022-09-17T07:40:43.883Z,275.62
2022-09-17T07:41:44.399Z,275.62
2022-09-17T07:42:44.902Z,275.62
2022-09-17T07:43:45.418Z,275.62
2022-09-17T07:44:45.974Z,275.62
2022-09-17T07:45:46.482Z,281.25
2022-09-17T07:46:47.061Z,281.25
2022-09-17T07:47:47.593Z,281.25
2022-09-17T07:48:48.107Z,281.25
2022-09-17T07:49:48.752Z,286.88
2022-09-17T07:50:49.257Z,286.88
2022-09-17T07:51:49.765Z,286.88
2022-09-17T07:52:50.272Z,286.88
2022-09-17T07:53:50.786Z,286.88
2022-09-17T07:54:51.350Z,286.88
2022-09-17T07:55:51.982Z,292.50
2022-09-17T07:56:52.491Z,292.50
2022-09-17T07:57:53.004Z,292.50
2022-09-17T07:58:53.511Z,292.50
2022-09-17T07:59:54.167Z,298.12
2022-09-17T08:00:54.677Z,298.12
2022-09-17T08:01:55.311Z,298.12
2022-09-17T08:02:55.954Z,303.75
2022-09-17T08:03:56.505Z,303.75
2022-09-17T08:04:57.055Z,303.75
2022-09-17T08:05:57.563Z,303.75
2022-09-17T08:06:58.065Z,303.75
2022-09-17T08:07:58.579Z,303.75
2022-09-17T08:08:59.088Z,303.75
2022-09-17T08:09:59.670Z,309.38
2022-09-17T08:11:00.308Z,309.38
2022-09-17T08:12:00.826Z,309.38
2022-09-17T08:13:01.349Z,309.38
2022-09-17T08:14:01.885Z,309.38
2022-09-17T08:15:02.430Z,309.38
2022-09-17T08:16:03.012Z,315.00
2022-09-17T08:17:03.545Z,315.00
2022-09-17T08:18:04.061Z,315.00
2022-09-17T08:19:04.576Z,315.00
2022-09-17T08:20:05.119Z,315.00
2022-09-17T08:21:05.642Z,315.00
2022-09-17T08:22:06.149Z,320.62
2022-09-17T08:23:06.667Z,320.62
2022-09-17T08:24:07.178Z,320.62
2022-09-17T08:25:08.294Z,320.62
2022-09-17T08:26:08.423Z,320.62
2022-09-17T08:27:08.926Z,320.62
2022-09-17T08:28:09.439Z,320.62
2022-09-17T08:29:09.941Z,326.25
2022-09-17T08:30:10.489Z,326.25
2022-09-17T08:31:11.057Z,326.25
2022-09-17T08:32:11.628Z,326.25
2022-09-17T08:33:12.136Z,326.25
2022-09-17T08:34:12.645Z,331.88
2022-09-17T08:35:13.199Z,331.88
2022-09-17T08:36:13.707Z,331.88
2022-09-17T08:37:14.327Z,331.88
2022-09-17T08:38:14.830Z,331.88
2022-09-17T08:39:15.345Z,331.88
2022-09-17T08:40:16.035Z,331.88
2022-09-17T08:41:16.787Z,337.50
2022-09-17T08:42:17.291Z,337.50
2022-09-17T08:43:17.803Z,337.50
2022-09-17T08:44:18.309Z,337.50
2022-09-17T08:45:18.853Z,337.50
2022-09-17T08:46:19.453Z,337.50
2022-09-17T08:47:19.978Z,343.12
2022-09-17T08:48:20.488Z,343.12
2022-09-17T08:49:20.999Z,343.12
2022-09-17T08:50:21.540Z,343.12
2022-09-17T08:51:22.047Z,343.12
2022-09-17T08:52:22.552Z,343.12
2022-09-17T08:53:23.062Z,343.12
2022-09-17T08:54:23.570Z,348.75
2022-09-17T08:55:24.111Z,348.75
2022-09-17T08:56:26.571Z,348.75
2022-09-17T08:57:25.210Z,348.75
2022-09-17T08:58:25.716Z,348.75
2022-09-17T08:59:26.226Z,348.75
2022-09-17T09:00:26.868Z,348.75
2022-09-17T09:01:27.403Z,348.75
2022-09-17T09:02:28.078Z,348.75
2022-09-17T09:03:28.688Z,354.38
2022-09-17T09:04:29.200Z,348.75
2022-09-17T09:05:29.863Z,354.38
2022-09-17T09:06:30.374Z,354.38
2022-09-17T09:07:30.898Z,354.38
2022-09-17T09:08:31.422Z,354.38
2022-09-17T09:09:31.927Z,354.38
2022-09-17T09:10:32.527Z,360.00
2022-09-17T09:11:33.202Z,360.00
2022-09-17T09:12:33.764Z,354.38
2022-09-17T09:13:34.273Z,360.00
2022-09-17T09:14:34.779Z,360.00
2022-09-17T09:15:35.322Z,360.00
2022-09-17T09:16:35.896Z,360.00
2022-09-17T09:17:36.442Z,360.00
2022-09-17T09:18:36.953Z,360.00
2022-09-17T09:19:37.455Z,360.00
2022-09-17T09:20:38.025Z,365.62
2022-09-17T09:21:38.529Z,360.00
2022-09-17T09:22:39.036Z,360.00
2022-09-17T09:23:39.553Z,360.00
2022-09-17T09:24:40.054Z,365.62
2022-09-17T09:25:40.655Z,360.00
2022-09-17T09:26:41.297Z,371.25
2022-09-17T09:27:41.809Z,360.00
2022-09-17T09:28:42.317Z,360.00
2022-09-17T09:29:42.821Z,360.00
2022-09-17T09:30:43.369Z,365.62
2022-09-17T09:31:43.959Z,365.62
2022-09-17T09:32:44.510Z,360.00
2022-09-17T09:33:47.916Z,360.00
2022-09-17T09:34:45.617Z,365.62
2022-09-17T09:35:46.161Z,365.62
2022-09-17T09:36:46.675Z,365.62
2022-09-17T09:37:47.194Z,365.62
2022-09-17T09:38:47.700Z,371.25
2022-09-17T09:39:48.228Z,365.62
2022-09-17T09:40:48.768Z,365.62
2022-09-17T09:41:49.407Z,371.25
2022-09-17T09:42:49.928Z,365.62
2022-09-17T09:44:03.774Z,371.25
2022-09-17T09:44:51.352Z,371.25
2022-09-17T09:45:51.891Z,371.25
2022-09-17T09:46:52.464Z,371.25
2022-09-17T09:47:53.024Z,365.62
2022-09-17T09:48:53.533Z,371.25
2022-09-17T09:49:54.041Z,365.62
2022-09-17T09:51:06.261Z,365.62
2022-09-17T09:51:55.501Z,371.25
2022-09-17T09:52:56.010Z,371.25
2022-09-17T09:53:56.512Z,371.25
2022-09-17T09:54:57.028Z,371.25
2022-09-17T09:55:57.566Z,365.62
2022-09-17T09:56:58.209Z,365.62
2022-09-17T09:57:58.719Z,371.25
2022-09-17T09:58:59.426Z,371.25
2022-09-17T10:00:00.021Z,371.25
2022-09-17T10:01:00.622Z,371.25
2022-09-17T10:02:01.244Z,371.25
2022-09-17T10:03:02.014Z,371.25
2022-09-17T10:04:02.580Z,371.25
2022-09-17T10:05:03.080Z,371.25
2022-09-17T10:06:03.725Z,371.25
2022-09-17T10:07:04.226Z,371.25
2022-09-17T10:08:04.733Z,371.25
2022-09-17T10:09:05.238Z,376.88
2022-09-17T10:10:05.749Z,376.88
2022-09-17T10:11:06.346Z,376.88
2022-09-17T10:12:06.974Z,376.88
2022-09-17T10:13:07.491Z,376.88
2022-09-17T10:14:09.934Z,376.88
2022-09-17T10:15:08.992Z,376.88
2022-09-17T10:16:09.619Z,376.88
2022-09-17T10:17:10.145Z,376.88
2022-09-17T10:18:10.651Z,376.88
2022-09-17T10:19:11.153Z,382.50
2022-09-17T10:20:11.658Z,376.88
2022-09-17T10:21:12.285Z,376.88
2022-09-17T10:22:12.787Z,376.88
2022-09-17T10:23:13.312Z,376.88
2022-09-17T10:24:13.832Z,376.88
2022-09-17T10:25:14.348Z,376.88
2022-09-17T10:26:14.952Z,382.50
2022-09-17T10:27:15.572Z,382.50
2022-09-17T10:28:16.115Z,382.50
2022-09-17T10:29:16.636Z,382.50
2022-09-17T10:30:17.196Z,382.50
2022-09-17T10:31:17.847Z,382.50
2022-09-17T10:32:18.378Z,388.12
2022-09-17T10:33:18.886Z,382.50
2022-09-17T10:34:19.394Z,382.50
2022-09-17T10:35:19.930Z,382.50
2022-09-17T10:36:20.485Z,388.12
2022-09-17T10:37:20.992Z,382.50
2022-09-17T10:38:21.507Z,382.50
2022-09-17T10:39:22.037Z,382.50
2022-09-17T10:40:22.595Z,382.50
2022-09-17T10:41:23.199Z,382.50
2022-09-17T10:42:23.827Z,382.50
2022-09-17T10:43:24.329Z,382.50
2022-09-17T10:44:24.840Z,388.12
2022-09-17T10:45:25.345Z,388.12
2022-09-17T10:46:27.762Z,388.12
2022-09-17T10:47:27.165Z,388.12
2022-09-17T10:48:27.168Z,388.12
2022-09-17T10:49:27.706Z,388.12
2022-09-17T10:50:28.214Z,388.12
2022-09-17T10:51:28.906Z,388.12
2022-09-17T10:52:29.415Z,388.12
2022-09-17T10:53:29.923Z,388.12
2022-09-17T10:54:30.435Z,388.12
2022-09-17T10:55:30.940Z,388.12
2022-09-17T10:56:31.499Z,388.12
2022-09-17T10:57:32.133Z,393.75
2022-09-17T10:58:32.637Z,388.12
2022-09-17T10:59:33.142Z,388.12
2022-09-17T11:00:33.651Z,388.12
2022-09-17T11:01:34.356Z,388.12
2022-09-17T11:02:35.015Z,388.12
2022-09-17T11:03:35.568Z,388.12
2022-09-17T11:04:36.076Z,388.12
2022-09-17T11:05:36.583Z,388.12
2022-09-17T11:06:37.121Z,388.12
2022-09-17T11:07:37.621Z,388.12
2022-09-17T11:08:38.126Z,388.12
2022-09-17T11:09:38.643Z,388.12
2022-09-17T11:10:39.155Z,388.12
2022-09-17T11:11:39.752Z,388.12
2022-09-17T11:12:40.383Z,388.12
2022-09-17T11:13:40.907Z,388.12
2022-09-17T11:14:41.414Z,388.12
2022-09-17T11:15:41.923Z,388.12
2022-09-17T11:16:42.621Z,388.12
2022-09-17T11:17:43.153Z,388.12
2022-09-17T11:18:43.672Z,388.12
2022-09-17T11:19:44.242Z,388.12
2022-09-17T11:20:44.757Z,388.12
2022-09-17T11:21:45.382Z,388.12
2022-09-17T11:22:45.892Z,388.12
2022-09-17T11:23:46.440Z,388.12
2022-09-17T11:24:46.975Z,388.12
2022-09-17T11:25:47.476Z,388.12
2022-09-17T11:26:48.077Z,388.12
2022-09-17T11:27:48.727Z,388.12
2022-09-17T11:28:49.229Z,393.75
2022-09-17T11:29:49.744Z,388.12
2022-09-17T11:30:50.257Z,388.12
2022-09-17T11:31:50.922Z,393.75
2022-09-17T11:32:51.485Z,388.12
2022-09-17T11:33:52.000Z,382.50
2022-09-17T11:34:52.529Z,388.12
2022-09-17T11:35:53.042Z,388.12
2022-09-17T11:36:53.597Z,388.12
2022-09-17T11:37:59.089Z,388.12
2022-09-17T11:38:54.973Z,382.50
2022-09-17T11:39:55.542Z,382.50
2022-09-17T11:40:56.105Z,382.50
2022-09-17T11:41:56.655Z,382.50
2022-09-17T11:42:57.291Z,382.50
2022-09-17T11:43:57.871Z,382.50
2022-09-17T11:44:58.402Z,382.50
2022-09-17T11:45:58.903Z,388.12
2022-09-17T11:46:59.495Z,382.50
2022-09-17T11:48:00.008Z,382.50
2022-09-17T11:49:00.515Z,382.50
2022-09-17T11:50:01.029Z,382.50
2022-09-17T11:51:01.559Z,382.50
2022-09-17T11:52:02.164Z,382.50
2022-09-17T11:53:02.673Z,382.50
2022-09-17T11:54:03.184Z,382.50
2022-09-17T11:55:03.697Z,382.50
2022-09-17T11:56:04.206Z,382.50
2022-09-17T11:57:09.057Z,382.50
2022-09-17T11:58:05.730Z,382.50
2022-09-17T11:59:06.249Z,382.50
2022-09-17T12:00:06.791Z,376.88
2022-09-17T12:01:07.310Z,376.88
2022-09-17T12:02:07.960Z,376.88
2022-09-17T12:03:08.546Z,376.88
2022-09-17T12:04:09.120Z,382.50
2022-09-17T12:05:09.620Z,376.88
2022-09-17T12:06:10.131Z,376.88
2022-09-17T12:07:10.684Z,376.88
2022-09-17T12:08:14.533Z,376.88
2022-09-17T12:09:11.893Z,376.88
2022-09-17T12:10:12.394Z,376.88
2022-09-17T12:11:12.918Z,376.88
2022-09-17T12:12:31.717Z,376.88
2022-09-17T12:13:14.477Z,371.25
2022-09-17T12:14:14.979Z,371.25
2022-09-17T12:15:15.504Z,365.62
2022-09-17T12:16:16.061Z,371.25
2022-09-17T12:17:16.687Z,365.62
2022-09-17T12:18:33.432Z,365.62
2022-09-17T12:19:18.057Z,365.62
2022-09-17T12:20:18.585Z,365.62
2022-09-17T12:21:19.101Z,365.62
2022-09-17T12:22:19.718Z,365.62
2022-09-17T12:23:20.358Z,365.62
2022-09-17T12:24:20.863Z,360.00
2022-09-17T12:25:21.369Z,360.00
2022-09-17T12:26:21.875Z,360.00
2022-09-17T12:27:22.564Z,360.00
2022-09-17T12:28:23.192Z,360.00
2022-09-17T12:29:23.696Z,360.00
2022-09-17T12:30:24.202Z,365.62
2022-09-17T12:31:24.834Z,360.00
2022-09-17T12:32:25.432Z,360.00
2022-09-17T12:33:25.946Z,360.00
2022-09-17T12:34:26.453Z,360.00
2022-09-17T12:35:46.411Z,360.00
2022-09-17T12:36:27.823Z,360.00
2022-09-17T12:37:28.368Z,354.38
2022-09-17T12:38:28.874Z,354.38
2022-09-17T12:39:29.382Z,354.38
2022-09-17T12:40:29.962Z,354.38
2022-09-17T12:41:30.561Z,354.38
2022-09-17T12:42:31.968Z,354.38
2022-09-17T12:43:31.836Z,354.38
2022-09-17T12:44:32.344Z,354.38
2022-09-17T12:45:32.853Z,354.38
2022-09-17T12:46:33.412Z,354.38
2022-09-17T12:47:33.996Z,354.38
2022-09-17T12:48:34.497Z,354.38
2022-09-17T12:49:35.004Z,348.75
2022-09-17T12:50:35.512Z,354.38
2022-09-17T12:51:36.022Z,348.75
2022-09-17T12:52:36.592Z,348.75
2022-09-17T12:53:37.104Z,348.75